createdAt,value
2023-05-22T00:02:43.863Z,59.77
2023-05-22T00:05:46.151Z,59.72
2023-05-22T00:08:48.543Z,59.74
2023-05-22T00:11:50.995Z,59.73
2023-05-22T00:14:53.237Z,59.82
2023-05-22T00:17:55.500Z,59.82
2023-05-22T00:20:58.127Z,59.90
2023-05-22T00:24:01.241Z,59.94
2023-05-22T00:27:03.460Z,59.88
2023-05-22T00:30:08.315Z,59.85
2023-05-22T00:33:11.421Z,59.95
2023-05-22T00:36:13.735Z,59.99
2023-05-22T00:39:15.895Z,59.99
2023-05-22T00:42:19.045Z,60.01
2023-05-22T00:45:23.445Z,59.99
2023-05-22T00:48:26.014Z,60.09
2023-05-22T00:51:28.518Z,60.05
2023-05-22T00:54:31.444Z,60.17
2023-05-22T00:57:36.524Z,60.15
2023-05-22T01:00:42.065Z,60.11
2023-05-22T01:03:45.864Z,60.15
2023-05-22T01:06:48.126Z,60.21
2023-05-22T01:09:50.222Z,60.15
2023-05-22T01:12:59.068Z,60.15
2023-05-22T01:16:16.055Z,60.24
2023-05-22T01:19:50.705Z,60.28
2023-05-22T01:23:13.698Z,60.29
2023-05-22T01:26:34.632Z,60.22
2023-05-22T01:29:46.232Z,60.22
2023-05-22T01:32:49.639Z,60.25
2023-05-22T01:35:54.094Z,60.18
2023-05-22T01:38:56.639Z,60.23
2023-05-22T01:41:59.052Z,60.18
2023-05-22T01:45:01.179Z,60.22
2023-05-22T01:48:03.587Z,60.29
2023-05-22T01:51:39.634Z,60.29
2023-05-22T01:54:59.234Z,60.25
2023-05-22T01:58:09.940Z,60.29
2023-05-22T02:01:14.050Z,60.37
2023-05-22T02:04:19.191Z,60.35
2023-05-22T02:07:24.996Z,60.38
2023-05-22T02:10:29.197Z,60.38
2023-05-22T02:13:31.615Z,60.40
2023-05-22T02:16:33.695Z,60.31
2023-05-22T02:19:36.315Z,60.29
2023-05-22T02:22:38.481Z,60.27
2023-05-22T02:25:40.745Z,60.28
2023-05-22T02:28:43.887Z,60.20
2023-05-22T02:31:46.090Z,60.22
2023-05-22T02:34:48.319Z,60.28
2023-05-22T02:37:50.481Z,60.27
2023-05-22T02:40:52.579Z,60.25
2023-05-22T02:43:54.720Z,60.25
2023-05-22T02:46:56.892Z,60.25
2023-05-22T02:49:59.228Z,60.29
2023-05-22T02:53:01.290Z,60.23
2023-05-22T02:56:03.482Z,60.24
2023-05-22T02:59:05.732Z,60.21
2023-05-22T03:02:08.200Z,60.25
2023-05-22T03:05:10.355Z,60.21
2023-05-22T03:08:12.846Z,60.23
2023-05-22T03:11:14.944Z,60.30
2023-05-22T03:14:17.055Z,60.28
2023-05-22T03:17:19.239Z,60.30
2023-05-22T03:20:21.402Z,60.33
2023-05-22T03:23:25.118Z,60.25
2023-05-22T03:26:28.313Z,60.26
2023-05-22T03:29:30.431Z,60.19
2023-05-22T03:32:32.961Z,60.28
2023-05-22T03:35:35.158Z,60.24
2023-05-22T03:38:37.297Z,60.21
2023-05-22T03:41:39.446Z,60.12
2023-05-22T03:44:41.506Z,60.23
2023-05-22T03:47:43.626Z,60.14
2023-05-22T03:50:45.866Z,60.16
2023-05-22T03:53:48.068Z,60.15
2023-05-22T03:56:50.770Z,60.16
2023-05-22T03:59:53.043Z,60.18
2023-05-22T04:02:58.595Z,60.12
2023-05-22T04:06:01.373Z,60.18
2023-05-22T04:09:04.019Z,60.18
2023-05-22T04:12:06.781Z,60.14
2023-05-22T04:15:09.326Z,60.18
2023-05-22T04:18:13.160Z,60.13
2023-05-22T04:21:15.277Z,60.18
2023-05-22T04:24:18.268Z,60.09
2023-05-22T04:27:22.510Z,60.12
2023-05-22T04:30:25.638Z,60.18
2023-05-22T04:33:28.966Z,60.14
2023-05-22T04:36:31.157Z,60.12
2023-05-22T04:39:34.309Z,60.04
2023-05-22T04:42:37.361Z,60.24
2023-05-22T04:45:42.192Z,60.32
2023-05-22T04:48:44.262Z,60.34
2023-05-22T04:51:46.338Z,60.38
2023-05-22T04:54:51.541Z,60.41
2023-05-22T04:57:53.755Z,60.47
2023-05-22T05:00:57.823Z,60.56
2023-05-22T05:03:59.969Z,60.63
2023-05-22T05:07:02.542Z,60.61
2023-05-22T05:10:05.069Z,60.59
2023-05-22T05:13:07.311Z,60.47
2023-05-22T05:16:09.449Z,60.63
2023-05-22T05:19:12.300Z,60.61
2023-05-22T05:22:14.941Z,60.70
2023-05-22T05:25:17.198Z,60.86
2023-05-22T05:28:19.864Z,60.99
2023-05-22T05:31:22.668Z,60.83
2023-05-22T05:34:24.790Z,60.77
2023-05-22T05:37:26.889Z,60.73
2023-05-22T05:40:28.949Z,60.81
2023-05-22T05:43:31.492Z,60.69
2023-05-22T05:46:33.792Z,60.74
2023-05-22T05:49:36.266Z,60.69
2023-05-22T05:52:38.318Z,60.67
2023-05-22T05:55:40.392Z,60.58
2023-05-22T05:58:42.566Z,60.44
2023-05-22T06:01:48.410Z,60.46
2023-05-22T06:04:50.522Z,60.66
2023-05-22T06:07:52.756Z,60.66
2023-05-22T06:10:55.123Z,60.93
2023-05-22T06:13:59.296Z,60.75
2023-05-22T06:17:01.390Z,60.70
2023-05-22T06:20:06.852Z,60.76
2023-05-22T06:23:08.949Z,60.87
2023-05-22T06:26:11.110Z,60.72
2023-05-22T06:29:13.160Z,60.83
2023-05-22T06:32:15.768Z,60.77
2023-05-22T06:35:18.491Z,60.95
2023-05-22T06:38:20.602Z,60.77
2023-05-22T06:41:22.922Z,60.65
2023-05-22T06:44:25.778Z,60.89
2023-05-22T06:47:27.947Z,61.37
2023-05-22T06:50:31.320Z,61.28
2023-05-22T06:53:33.524Z,61.15
2023-05-22T06:56:35.754Z,61.60
2023-05-22T06:59:37.912Z,61.49
2023-05-22T07:02:40.317Z,61.22
2023-05-22T07:05:42.496Z,61.23
2023-05-22T07:08:44.656Z,61.19
2023-05-22T07:11:47.137Z,61.08
2023-05-22T07:14:49.229Z,61.07
2023-05-22T07:17:51.351Z,61.02
2023-05-22T07:20:53.711Z,60.91
2023-05-22T07:23:55.789Z,61.02
2023-05-22T07:26:57.956Z,61.05
2023-05-22T07:30:00.097Z,61.16
2023-05-22T07:33:02.240Z,61.21
2023-05-22T07:36:04.679Z,60.94
2023-05-22T07:39:06.790Z,60.87
2023-05-22T07:42:08.918Z,60.31
2023-05-22T07:45:11.580Z,59.83
2023-05-22T07:48:13.701Z,59.95
2023-05-22T07:51:15.960Z,59.55
2023-05-22T07:54:21.315Z,59.60
2023-05-22T07:57:23.420Z,59.99
2023-05-22T08:00:25.783Z,60.38
2023-05-22T08:03:28.133Z,60.19
2023-05-22T08:06:30.915Z,59.99
2023-05-22T08:09:33.157Z,59.48
2023-05-22T08:12:35.292Z,59.70
2023-05-22T08:15:37.333Z,59.32
2023-05-22T08:18:39.395Z,58.96
2023-05-22T08:21:41.488Z,58.94
2023-05-22T08:24:43.641Z,58.71
2023-05-22T08:27:45.752Z,58.51
2023-05-22T08:30:47.858Z,58.57
2023-05-22T08:33:50.020Z,58.52
2023-05-22T08:36:52.099Z,58.40
2023-05-22T08:39:54.256Z,58.72
2023-05-22T08:42:57.543Z,58.84
2023-05-22T08:46:09.019Z,58.70
2023-05-22T08:49:12.669Z,58.54
2023-05-22T08:52:23.130Z,58.76
2023-05-22T08:55:25.617Z,58.57
2023-05-22T08:58:28.379Z,58.38
2023-05-22T09:01:32.362Z,58.18
2023-05-22T09:04:34.876Z,58.23
2023-05-22T09:07:38.063Z,58.07
2023-05-22T09:10:40.294Z,58.17
2023-05-22T09:13:44.568Z,58.16
2023-05-22T09:16:48.329Z,58.17
2023-05-22T09:19:50.809Z,58.15
2023-05-22T09:22:52.951Z,58.10
2023-05-22T09:25:59.730Z,58.13
2023-05-22T09:29:02.213Z,58.16
2023-05-22T09:32:04.608Z,58.00
2023-05-22T09:35:07.320Z,57.96
2023-05-22T09:38:12.067Z,58.05
2023-05-22T09:41:20.296Z,58.24
2023-05-22T09:44:26.948Z,58.23
2023-05-22T09:47:29.279Z,58.57
2023-05-22T09:50:32.029Z,58.52
2023-05-22T09:53:34.676Z,59.03
2023-05-22T09:56:40.178Z,59.32
2023-05-22T09:59:44.123Z,58.95
2023-05-22T10:02:48.535Z,58.75
2023-05-22T10:05:55.746Z,58.99
2023-05-22T10:09:05.088Z,59.07
2023-05-22T10:12:10.351Z,58.56
2023-05-22T10:15:12.893Z,58.65
2023-05-22T10:18:16.862Z,58.00
2023-05-22T10:21:19.925Z,57.87
2023-05-22T10:24:22.649Z,58.15
2023-05-22T10:27:24.902Z,57.39
2023-05-22T10:30:47.351Z,57.22
2023-05-22T10:33:56.235Z,57.58
2023-05-22T10:37:24.698Z,57.94
2023-05-22T10:40:33.185Z,57.47
2023-05-22T10:43:41.616Z,57.91
2023-05-22T10:46:50.156Z,57.93
2023-05-22T10:50:10.201Z,58.08
2023-05-22T10:53:25.806Z,57.81
2023-05-22T10:56:34.279Z,57.29
2023-05-22T10:59:36.809Z,56.75
2023-05-22T11:02:43.810Z,56.74
2023-05-22T11:05:53.013Z,56.96
2023-05-22T11:08:57.596Z,56.84
2023-05-22T11:12:26.411Z,56.53
2023-05-22T11:15:32.428Z,56.26
2023-05-22T11:18:34.610Z,55.76
2023-05-22T11:21:46.881Z,54.57
2023-05-22T11:24:49.397Z,53.87
2023-05-22T11:27:52.872Z,53.57
2023-05-22T11:30:56.000Z,53.01
2023-05-22T11:33:58.540Z,53.14
2023-05-22T11:37:01.446Z,53.22
2023-05-22T11:40:05.845Z,52.94
2023-05-22T11:43:07.938Z,52.95
2023-05-22T11:46:11.422Z,52.69
2023-05-22T11:49:13.642Z,51.73
2023-05-22T11:52:17.236Z,51.27
2023-05-22T11:55:19.430Z,51.71
2023-05-22T11:58:31.902Z,51.09
2023-05-22T12:01:34.124Z,50.81
2023-05-22T12:04:37.942Z,50.92
2023-05-22T12:07:40.080Z,50.98
2023-05-22T12:10:47.990Z,48.70
2023-05-22T12:13:59.754Z,49.93
2023-05-22T12:17:04.386Z,49.66
2023-05-22T12:20:07.234Z,50.09
2023-05-22T12:23:20.792Z,50.14
2023-05-22T12:26:22.925Z,49.40
2023-05-22T12:29:25.415Z,48.15
2023-05-22T12:32:30.055Z,48.91
2023-05-22T12:35:32.238Z,48.72
2023-05-22T12:38:35.637Z,48.19
2023-05-22T12:41:38.835Z,48.16
2023-05-22T12:44:41.329Z,48.09
2023-05-22T12:47:43.500Z,49.00
2023-05-22T12:50:46.735Z,48.95
2023-05-22T12:53:48.831Z,49.33
2023-05-22T12:56:51.003Z,49.27
2023-05-22T12:59:53.092Z,49.16
2023-05-22T13:02:55.381Z,47.52
2023-05-22T13:05:57.548Z,48.32
2023-05-22T13:08:59.634Z,49.41
2023-05-22T13:12:01.916Z,49.37
2023-05-22T13:15:04.509Z,49.37
2023-05-22T13:18:06.643Z,49.57
2023-05-22T13:21:08.729Z,49.53
2023-05-22T13:24:10.978Z,49.02
2023-05-22T13:27:13.324Z,48.02
2023-05-22T13:30:16.091Z,48.63
2023-05-22T13:33:18.169Z,49.61
2023-05-22T13:36:20.404Z,49.95
2023-05-22T13:39:22.782Z,50.10
2023-05-22T13:42:24.912Z,50.21
2023-05-22T13:45:27.785Z,50.16
2023-05-22T13:48:30.292Z,50.64
2023-05-22T13:51:32.823Z,50.10
2023-05-22T13:54:35.152Z,50.69
2023-05-22T13:57:40.425Z,50.19
2023-05-22T14:00:42.668Z,49.99
2023-05-22T14:03:44.864Z,51.75
2023-05-22T14:06:46.990Z,51.46
2023-05-22T14:09:49.166Z,49.63
2023-05-22T14:12:51.340Z,48.85
2023-05-22T14:15:53.409Z,48.60
2023-05-22T14:18:55.729Z,48.57
2023-05-22T14:21:57.877Z,49.24
2023-05-22T14:24:59.957Z,48.32
2023-05-22T14:28:02.066Z,48.65
2023-05-22T14:31:04.198Z,48.11
2023-05-22T14:34:06.309Z,46.80
2023-05-22T14:37:08.510Z,47.79
2023-05-22T14:40:11.058Z,49.37
2023-05-22T14:43:13.176Z,49.15
2023-05-22T14:46:15.327Z,48.53
2023-05-22T14:49:17.433Z,48.70
2023-05-22T14:52:19.483Z,48.17
2023-05-22T14:55:21.777Z,48.18
2023-05-22T14:58:24.054Z,48.74
2023-05-22T15:01:26.192Z,48.41
2023-05-22T15:04:28.247Z,49.48
2023-05-22T15:07:43.044Z,48.73
2023-05-22T15:10:46.598Z,49.53
2023-05-22T15:13:48.878Z,50.13
2023-05-22T15:16:51.031Z,50.99
2023-05-22T15:19:53.110Z,49.91
2023-05-22T15:22:55.244Z,49.11
2023-05-22T15:25:57.401Z,51.13
2023-05-22T15:29:01.306Z,51.61
2023-05-22T15:32:03.539Z,51.90
2023-05-22T15:35:06.937Z,52.14
2023-05-22T15:38:12.403Z,52.83
2023-05-22T15:41:14.492Z,53.63
2023-05-22T15:44:16.656Z,53.80
2023-05-22T15:47:18.790Z,53.88
2023-05-22T15:50:21.049Z,53.82
2023-05-22T15:53:23.222Z,52.89
2023-05-22T15:56:25.941Z,53.47
2023-05-22T15:59:28.038Z,53.20
2023-05-22T16:02:30.209Z,52.85
2023-05-22T16:05:34.758Z,52.75
2023-05-22T16:08:36.920Z,52.69
2023-05-22T16:11:39.061Z,52.85
2023-05-22T16:14:41.937Z,53.41
2023-05-22T16:17:44.198Z,53.79
2023-05-22T16:20:46.429Z,53.58
2023-05-22T16:23:48.543Z,53.76
2023-05-22T16:26:50.726Z,53.56
2023-05-22T16:29:52.852Z,53.80
2023-05-22T16:32:55.004Z,53.99
2023-05-22T16:35:57.154Z,54.08
2023-05-22T16:38:59.238Z,54.21
2023-05-22T16:42:01.542Z,54.23
2023-05-22T16:45:04.452Z,54.38
2023-05-22T16:48:08.117Z,54.65
2023-05-22T16:51:11.346Z,54.20
2023-05-22T16:54:13.433Z,54.77
2023-05-22T16:57:16.136Z,55.13
2023-05-22T17:00:18.809Z,54.83
2023-05-22T17:03:21.452Z,55.10
2023-05-22T17:06:24.001Z,55.35
2023-05-22T17:09:27.555Z,55.44
2023-05-22T17:12:29.686Z,55.69
2023-05-22T17:15:31.822Z,55.94
2023-05-22T17:18:33.931Z,55.73
2023-05-22T17:21:36.720Z,57.24
2023-05-22T17:24:39.269Z,57.46
2023-05-22T17:27:41.457Z,57.11
2023-05-22T17:30:47.135Z,57.09
2023-05-22T17:33:49.339Z,57.10
2023-05-22T17:36:51.445Z,57.12
2023-05-22T17:39:53.964Z,57.25
2023-05-22T17:42:58.379Z,57.27
2023-05-22T17:46:00.999Z,57.58
2023-05-22T17:49:03.166Z,57.03
2023-05-22T17:52:05.756Z,57.03
2023-05-22T17:55:08.682Z,57.08
2023-05-22T17:58:10.815Z,57.07
2023-05-22T18:01:12.916Z,57.14
2023-05-22T18:04:14.985Z,57.30
2023-05-22T18:07:17.800Z,57.28
2023-05-22T18:10:23.276Z,57.34
2023-05-22T18:13:25.438Z,57.30
2023-05-22T18:16:27.523Z,57.35
2023-05-22T18:19:29.620Z,57.35
2023-05-22T18:22:31.704Z,57.44
2023-05-22T18:25:33.821Z,57.48
2023-05-22T18:28:35.974Z,57.48
2023-05-22T18:31:38.068Z,57.55
2023-05-22T18:34:41.196Z,57.51
2023-05-22T18:37:43.271Z,57.62
2023-05-22T18:40:47.070Z,57.67
2023-05-22T18:43:49.201Z,57.75
2023-05-22T18:46:51.330Z,57.90
2023-05-22T18:49:53.383Z,57.76
2023-05-22T18:52:55.665Z,57.87
2023-05-22T18:55:57.793Z,57.81
2023-05-22T18:58:59.839Z,57.83
2023-05-22T19:02:01.980Z,57.85
2023-05-22T19:05:04.592Z,57.81
2023-05-22T19:08:06.946Z,57.90
2023-05-22T19:11:09.020Z,57.65
2023-05-22T19:14:11.710Z,57.29
2023-05-22T19:17:13.825Z,57.26
2023-05-22T19:20:16.151Z,57.42
2023-05-22T19:23:18.856Z,57.48
2023-05-22T19:26:21.068Z,57.65
2023-05-22T19:29:23.108Z,57.65
2023-05-22T19:32:25.266Z,57.87
2023-05-22T19:35:27.441Z,57.89
2023-05-22T19:38:31.059Z,57.98
2023-05-22T19:41:33.141Z,58.00
2023-05-22T19:44:35.526Z,58.10
2023-05-22T19:47:37.711Z,58.25
2023-05-22T19:50:40.109Z,58.23
2023-05-22T19:53:42.619Z,58.09
2023-05-22T19:56:44.782Z,58.13
2023-05-22T19:59:46.935Z,58.29
2023-05-22T20:02:49.125Z,58.48
2023-05-22T20:05:54.512Z,58.53
2023-05-22T20:08:56.937Z,58.68
2023-05-22T20:11:59.048Z,58.66
2023-05-22T20:15:02.683Z,58.55
2023-05-22T20:18:05.448Z,58.77
2023-05-22T20:21:07.792Z,58.45
2023-05-22T20:24:17.430Z,58.47
2023-05-22T20:27:19.628Z,58.49
2023-05-22T20:30:21.732Z,58.43
2023-05-22T20:33:23.997Z,58.45
2023-05-22T20:36:26.347Z,58.58
2023-05-22T20:39:29.400Z,58.67
2023-05-22T20:42:31.776Z,58.51
2023-05-22T20:45:33.908Z,58.62
2023-05-22T20:48:36.023Z,58.67
2023-05-22T20:51:38.216Z,58.50
2023-05-22T20:54:41.180Z,58.63
2023-05-22T20:57:43.298Z,58.58
2023-05-22T21:00:45.862Z,58.68
2023-05-22T21:03:49.796Z,58.51
2023-05-22T21:06:51.958Z,58.56
2023-05-22T21:09:54.104Z,58.54
2023-05-22T21:12:56.147Z,58.55
2023-05-22T21:15:58.204Z,58.50
2023-05-22T21:19:00.620Z,58.52
2023-05-22T21:22:02.782Z,58.58
2023-05-22T21:25:05.574Z,58.57
2023-05-22T21:28:07.858Z,58.61
2023-05-22T21:31:09.958Z,58.70
2023-05-22T21:34:12.032Z,58.56
2023-05-22T21:37:14.150Z,58.52
2023-05-22T21:40:16.645Z,58.52
2023-05-22T21:43:18.738Z,58.73
2023-05-22T21:46:24.325Z,58.76
2023-05-22T21:49:26.582Z,58.84
2023-05-22T21:52:28.990Z,58.89
2023-05-22T21:55:31.115Z,58.97
2023-05-22T21:58:33.202Z,58.99
2023-05-22T22:01:35.435Z,58.97
2023-05-22T22:04:37.519Z,59.05
2023-05-22T22:07:39.640Z,59.13
2023-05-22T22:10:42.441Z,59.18
2023-05-22T22:13:44.588Z,59.22
2023-05-22T22:16:46.790Z,59.19
2023-05-22T22:19:49.608Z,59.19
2023-05-22T22:22:51.883Z,59.12
2023-05-22T22:25:53.970Z,59.06
2023-05-22T22:28:56.665Z,59.09
2023-05-22T22:31:58.843Z,59.13
2023-05-22T22:35:00.951Z,59.19
2023-05-22T22:38:03.144Z,59.22
2023-05-22T22:41:08.460Z,59.16
2023-05-22T22:44:10.604Z,59.14
2023-05-22T22:47:12.774Z,59.07
2023-05-22T22:50:14.829Z,59.02
2023-05-22T22:53:16.931Z,59.14
2023-05-22T22:56:19.257Z,59.11
2023-05-22T22:59:21.437Z,59.11
2023-05-22T23:02:23.500Z,59.12
2023-05-22T23:05:25.726Z,59.08
2023-05-22T23:08:27.827Z,59.08
2023-05-22T23:11:37.231Z,59.12
2023-05-22T23:14:39.320Z,59.09
2023-05-22T23:17:42.079Z,59.09
2023-05-22T23:20:44.266Z,59.10
2023-05-22T23:23:46.324Z,59.08
2023-05-22T23:26:48.462Z,59.05
2023-05-22T23:29:50.591Z,58.98
2023-05-22T23:32:52.723Z,59.01
2023-05-22T23:35:54.855Z,58.99
2023-05-22T23:38:57.001Z,59.06
2023-05-22T23:42:02.051Z,59.01
2023-05-22T23:45:04.664Z,59.03
2023-05-22T23:48:06.913Z,59.03
2023-05-22T23:51:09.935Z,58.99
2023-05-22T23:54:13.083Z,59.03
2023-05-22T23:57:15.344Z,59.05
